Terminal Aerodrome Forecast
Issued by NWS Wilmington, OH

Current Version | Previous Version | Text Only | Print | Product List | Glossary Off
Versions: 1 2 3 4 5 6 7 8 9 10 11 12 13 14 15 16 17 18 19

000
FTUS41 KILN 272058 AAA
TAFDAY
TAF AMD
KDAY 272058Z 2721/2818 07004KT P6SM BKN045
     FM272300 04005KT P6SM SCT050
     FM280000 07004KT P6SM SKC
     FM281000 09003KT 5SM BR SKC
     FM281300 14005KT P6SM SKC=

USA.gov is the U.S. government's official web portal to all federal, state and local government web resources and services.